English বাংলা অনুসন্ধান

রংপুর, ময়মনসিংহ ও সিলেট বিভাগের অধিকাংশ জায়গায় ;  ঢাকা, বরিশাল ও চট্টগ্রাম বিভাগের অনেক জায়গায় এবং রাজশাহী ও খুলনা বিভাগের কিছু কিছু জায়গায় অস্থায়ীভাবে দমকা হাওয়াসহ হালকা থেকে মাঝারী ধরনের বৃষ্টি/বজ্রসহ বৃষ্টি হতে পারে। সেই সাথে দেশের কোথাও কোথাও  মাঝারী ধরনের ভারী থেকে ভারী বর্ষণ হতে পারে। 

 

ট্যাফ

TAF VGHS 291700Z 2918/3024 18008KT 3500 HZ SCT012 BKN100 TEMPO 2918/2921 26020G30KT 2000 RA/TSRA BKN008 FEW025CB OVC090 BECMG 2922/2924 16006KT 3500 HZ SCT012 BKN100 TEMPO 3000/3009 26020G30KT 2000 RA/TSRA BKN008 FEW025CB OVC090=

TAF VGEG 291700Z 2918/3024 16005KT 4000 SCT015 BKN100 TEMPO 3000/3005 2000 RA/TSRA BKN008 FEW025CB OVC090 BECMG 3006/3008 18008KT 4500 SCT015 BKN100 BECMG 3018/3020 17007KT 4000 SCT015 BKN100=

TAF VGSY 291000Z 2912/3018 23005KT 3500 HZ SCT012 BKN100 BECMG 2923/3001 06004KT 3000 HZ SCT012 BKN100 BECMG 3003/3005 09005KT 3500 HZ SCT015 BKN100 TEMPO 2912/3006 18020KT 2000 RA/TSRA BKN007 FEW025CB OVC080=